sensor_id;sensor_type;location;lat;lon;timestamp;P1;durP1;ratioP1;P2;durP2;ratioP2
69594;SDS011;56800;52.142;5.364;2023-05-10T00:00:23;36.43;;;21.40;;
69594;SDS011;56800;52.142;5.364;2023-05-10T00:02:50;42.28;;;23.55;;
69594;SDS011;56800;52.142;5.364;2023-05-10T00:05:18;50.38;;;24.08;;
69594;SDS011;56800;52.142;5.364;2023-05-10T00:07:44;45.83;;;23.45;;
69594;SDS011;56800;52.142;5.364;2023-05-10T00:10:11;45.40;;;22.98;;
69594;SDS011;56800;52.142;5.364;2023-05-10T00:12:38;42.23;;;24.03;;
69594;SDS011;56800;52.142;5.364;2023-05-10T00:15:05;42.92;;;24.30;;
69594;SDS011;56800;52.142;5.364;2023-05-10T00:17:32;45.33;;;23.88;;
69594;SDS011;56800;52.142;5.364;2023-05-10T00:19:59;37.28;;;22.08;;
69594;SDS011;56800;52.142;5.364;2023-05-10T00:22:26;40.90;;;22.73;;
69594;SDS011;56800;52.142;5.364;2023-05-10T00:24:53;37.07;;;20.57;;
69594;SDS011;56800;52.142;5.364;2023-05-10T00:27:19;37.47;;;20.02;;
69594;SDS011;56800;52.142;5.364;2023-05-10T00:29:46;35.33;;;20.10;;
69594;SDS011;56800;52.142;5.364;2023-05-10T00:32:13;46.85;;;21.00;;
69594;SDS011;56800;52.142;5.364;2023-05-10T00:34:40;47.10;;;22.98;;
69594;SDS011;56800;52.142;5.364;2023-05-10T00:37:06;41.33;;;23.57;;
69594;SDS011;56800;52.142;5.364;2023-05-10T00:39:33;57.28;;;27.20;;
69594;SDS011;56800;52.142;5.364;2023-05-10T00:42:00;65.63;;;28.58;;
69594;SDS011;56800;52.142;5.364;2023-05-10T00:44:27;55.10;;;27.70;;
69594;SDS011;56800;52.142;5.364;2023-05-10T00:46:53;63.20;;;29.58;;
69594;SDS011;56800;52.142;5.364;2023-05-10T00:49:20;54.17;;;29.37;;
69594;SDS011;56800;52.142;5.364;2023-05-10T00:51:47;61.83;;;30.60;;
69594;SDS011;56800;52.142;5.364;2023-05-10T00:54:15;100.25;;;32.95;;
69594;SDS011;56800;52.142;5.364;2023-05-10T00:56:42;67.80;;;32.35;;
69594;SDS011;56800;52.142;5.364;2023-05-10T00:59:18;75.88;;;33.35;;
69594;SDS011;56800;52.142;5.364;2023-05-10T01:01:45;86.57;;;32.23;;
69594;SDS011;56800;52.142;5.364;2023-05-10T01:04:12;134.60;;;35.28;;
69594;SDS011;56800;52.142;5.364;2023-05-10T01:06:40;84.60;;;33.50;;
69594;SDS011;56800;52.142;5.364;2023-05-10T01:09:08;147.32;;;34.08;;
69594;SDS011;56800;52.142;5.364;2023-05-10T01:11:35;86.95;;;33.10;;
69594;SDS011;56800;52.142;5.364;2023-05-10T01:14:03;71.13;;;31.37;;
69594;SDS011;56800;52.142;5.364;2023-05-10T01:16:32;71.00;;;31.92;;
69594;SDS011;56800;52.142;5.364;2023-05-10T01:19:05;85.85;;;34.33;;
69594;SDS011;56800;52.142;5.364;2023-05-10T01:24:39;75.55;;;31.27;;
69594;SDS011;56800;52.142;5.364;2023-05-10T01:27:14;72.00;;;31.57;;
69594;SDS011;56800;52.142;5.364;2023-05-10T01:30:01;100.60;;;33.70;;
69594;SDS011;56800;52.142;5.364;2023-05-10T01:35:13;86.72;;;32.42;;
69594;SDS011;56800;52.142;5.364;2023-05-10T01:38:12;71.45;;;31.38;;
69594;SDS011;56800;52.142;5.364;2023-05-10T01:46:53;78.20;;;32.45;;
69594;SDS011;56800;52.142;5.364;2023-05-10T01:49:31;82.80;;;33.72;;
69594;SDS011;56800;52.142;5.364;2023-05-10T01:52:04;74.88;;;32.25;;
69594;SDS011;56800;52.142;5.364;2023-05-10T01:54:34;82.70;;;34.17;;
69594;SDS011;56800;52.142;5.364;2023-05-10T01:57:05;78.68;;;32.47;;
69594;SDS011;56800;52.142;5.364;2023-05-10T01:59:35;79.65;;;32.85;;
69594;SDS011;56800;52.142;5.364;2023-05-10T02:02:07;80.75;;;32.70;;
69594;SDS011;56800;52.142;5.364;2023-05-10T02:04:38;79.68;;;33.15;;
69594;SDS011;56800;52.142;5.364;2023-05-10T02:07:07;80.10;;;32.40;;
69594;SDS011;56800;52.142;5.364;2023-05-10T02:09:35;79.78;;;31.88;;
69594;SDS011;56800;52.142;5.364;2023-05-10T02:12:03;73.07;;;31.63;;
69594;SDS011;56800;52.142;5.364;2023-05-10T02:14:34;85.10;;;32.25;;
69594;SDS011;56800;52.142;5.364;2023-05-10T02:17:04;75.93;;;33.45;;
69594;SDS011;56800;52.142;5.364;2023-05-10T02:19:32;79.10;;;33.50;;
69594;SDS011;56800;52.142;5.364;2023-05-10T02:22:00;81.80;;;31.88;;
69594;SDS011;56800;52.142;5.364;2023-05-10T02:24:27;80.72;;;32.45;;
69594;SDS011;56800;52.142;5.364;2023-05-10T02:26:55;83.45;;;32.53;;
69594;SDS011;56800;52.142;5.364;2023-05-10T02:29:23;89.72;;;33.63;;
69594;SDS011;56800;52.142;5.364;2023-05-10T02:31:52;73.17;;;30.60;;
69594;SDS011;56800;52.142;5.364;2023-05-10T02:34:23;82.70;;;33.20;;
69594;SDS011;56800;52.142;5.364;2023-05-10T02:36:53;70.22;;;29.80;;
69594;SDS011;56800;52.142;5.364;2023-05-10T02:39:20;86.65;;;34.78;;
69594;SDS011;56800;52.142;5.364;2023-05-10T02:41:48;88.47;;;35.10;;
69594;SDS011;56800;52.142;5.364;2023-05-10T02:44:17;80.97;;;33.13;;
69594;SDS011;56800;52.142;5.364;2023-05-10T02:46:46;74.82;;;32.33;;
69594;SDS011;56800;52.142;5.364;2023-05-10T02:49:13;80.72;;;33.95;;
69594;SDS011;56800;52.142;5.364;2023-05-10T02:51:41;94.22;;;35.25;;
69594;SDS011;56800;52.142;5.364;2023-05-10T02:54:12;79.75;;;35.17;;
69594;SDS011;56800;52.142;5.364;2023-05-10T02:56:47;93.83;;;34.03;;
69594;SDS011;56800;52.142;5.364;2023-05-10T02:59:17;82.18;;;31.90;;
69594;SDS011;56800;52.142;5.364;2023-05-10T03:01:43;78.95;;;31.67;;
69594;SDS011;56800;52.142;5.364;2023-05-10T03:04:10;98.05;;;33.25;;
69594;SDS011;56800;52.142;5.364;2023-05-10T03:06:37;84.57;;;32.40;;
69594;SDS011;56800;52.142;5.364;2023-05-10T03:09:04;91.47;;;30.83;;
69594;SDS011;56800;52.142;5.364;2023-05-10T03:16:47;102.90;;;33.17;;
69594;SDS011;56800;52.142;5.364;2023-05-10T03:19:26;100.25;;;33.28;;
69594;SDS011;56800;52.142;5.364;2023-05-10T03:21:59;98.60;;;33.87;;
69594;SDS011;56800;52.142;5.364;2023-05-10T03:24:29;140.23;;;35.25;;
69594;SDS011;56800;52.142;5.364;2023-05-10T03:26:56;114.97;;;35.92;;
69594;SDS011;56800;52.142;5.364;2023-05-10T03:29:28;108.82;;;35.63;;
69594;SDS011;56800;52.142;5.364;2023-05-10T03:31:59;99.32;;;32.42;;
69594;SDS011;56800;52.142;5.364;2023-05-10T03:34:26;105.97;;;35.70;;
69594;SDS011;56800;52.142;5.364;2023-05-10T03:36:57;97.60;;;33.75;;
69594;SDS011;56800;52.142;5.364;2023-05-10T03:39:23;112.70;;;34.67;;
69594;SDS011;56800;52.142;5.364;2023-05-10T03:41:50;93.60;;;34.67;;
69594;SDS011;56800;52.142;5.364;2023-05-10T03:44:17;98.18;;;34.17;;
69594;SDS011;56800;52.142;5.364;2023-05-10T03:46:44;97.80;;;35.33;;
69594;SDS011;56800;52.142;5.364;2023-05-10T03:49:10;131.82;;;36.60;;
69594;SDS011;56800;52.142;5.364;2023-05-10T03:51:38;114.25;;;36.67;;
69594;SDS011;56800;52.142;5.364;2023-05-10T03:54:04;108.72;;;36.35;;
69594;SDS011;56800;52.142;5.364;2023-05-10T03:56:31;102.55;;;36.35;;
69594;SDS011;56800;52.142;5.364;2023-05-10T03:58:58;87.60;;;32.13;;
69594;SDS011;56800;52.142;5.364;2023-05-10T04:01:25;114.28;;;34.70;;
69594;SDS011;56800;52.142;5.364;2023-05-10T04:03:51;135.75;;;38.28;;
69594;SDS011;56800;52.142;5.364;2023-05-10T04:06:18;106.72;;;35.92;;
69594;SDS011;56800;52.142;5.364;2023-05-10T04:08:45;112.88;;;37.05;;
69594;SDS011;56800;52.142;5.364;2023-05-10T04:11:11;106.27;;;35.60;;
69594;SDS011;56800;52.142;5.364;2023-05-10T04:13:39;126.95;;;35.13;;
69594;SDS011;56800;52.142;5.364;2023-05-10T04:16:06;102.20;;;36.22;;
69594;SDS011;56800;52.142;5.364;2023-05-10T04:18:33;143.55;;;35.78;;
69594;SDS011;56800;52.142;5.364;2023-05-10T04:20:59;102.53;;;36.08;;
69594;SDS011;56800;52.142;5.364;2023-05-10T04:23:27;112.50;;;36.17;;
69594;SDS011;56800;52.142;5.364;2023-05-10T04:25:58;112.38;;;34.28;;
69594;SDS011;56800;52.142;5.364;2023-05-10T04:28:26;131.13;;;37.30;;
69594;SDS011;56800;52.142;5.364;2023-05-10T04:30:53;117.68;;;35.97;;
69594;SDS011;56800;52.142;5.364;2023-05-10T04:33:26;112.18;;;35.72;;
69594;SDS011;56800;52.142;5.364;2023-05-10T04:35:53;115.60;;;35.93;;
69594;SDS011;56800;52.142;5.364;2023-05-10T04:38:19;108.05;;;34.40;;
69594;SDS011;56800;52.142;5.364;2023-05-10T04:40:46;141.95;;;37.42;;
69594;SDS011;56800;52.142;5.364;2023-05-10T04:43:12;130.38;;;35.67;;
69594;SDS011;56800;52.142;5.364;2023-05-10T04:45:39;113.28;;;35.80;;
69594;SDS011;56800;52.142;5.364;2023-05-10T04:48:06;103.30;;;35.20;;
69594;SDS011;56800;52.142;5.364;2023-05-10T04:50:33;108.50;;;34.47;;
69594;SDS011;56800;52.142;5.364;2023-05-10T04:53:00;114.13;;;35.40;;
69594;SDS011;56800;52.142;5.364;2023-05-10T04:55:27;118.35;;;36.97;;
69594;SDS011;56800;52.142;5.364;2023-05-10T04:57:53;118.50;;;35.72;;
69594;SDS011;56800;52.142;5.364;2023-05-10T05:00:23;152.70;;;37.17;;
69594;SDS011;56800;52.142;5.364;2023-05-10T05:02:49;137.45;;;37.10;;
69594;SDS011;56800;52.142;5.364;2023-05-10T05:05:16;144.10;;;38.65;;
69594;SDS011;56800;52.142;5.364;2023-05-10T05:07:43;122.38;;;37.80;;
69594;SDS011;56800;52.142;5.364;2023-05-10T05:10:09;196.25;;;39.92;;
69594;SDS011;56800;52.142;5.364;2023-05-10T05:12:36;105.43;;;35.70;;
69594;SDS011;56800;52.142;5.364;2023-05-10T05:15:03;93.50;;;34.28;;
69594;SDS011;56800;52.142;5.364;2023-05-10T05:17:31;100.40;;;34.58;;
69594;SDS011;56800;52.142;5.364;2023-05-10T05:19:57;94.75;;;34.17;;
69594;SDS011;56800;52.142;5.364;2023-05-10T05:22:24;114.13;;;34.55;;
69594;SDS011;56800;52.142;5.364;2023-05-10T05:24:54;93.57;;;34.10;;
69594;SDS011;56800;52.142;5.364;2023-05-10T05:27:21;134.80;;;36.08;;
69594;SDS011;56800;52.142;5.364;2023-05-10T05:29:50;100.88;;;34.22;;
69594;SDS011;56800;52.142;5.364;2023-05-10T05:32:18;86.68;;;31.73;;
69594;SDS011;56800;52.142;5.364;2023-05-10T05:34:45;103.78;;;34.40;;
69594;SDS011;56800;52.142;5.364;2023-05-10T05:37:16;97.13;;;33.83;;
69594;SDS011;56800;52.142;5.364;2023-05-10T05:39:44;98.05;;;32.78;;
69594;SDS011;56800;52.142;5.364;2023-05-10T05:42:11;98.80;;;32.67;;
69594;SDS011;56800;52.142;5.364;2023-05-10T05:44:39;100.65;;;32.25;;
69594;SDS011;56800;52.142;5.364;2023-05-10T05:47:06;95.75;;;31.90;;
69594;SDS011;56800;52.142;5.364;2023-05-10T05:49:32;97.60;;;33.03;;
69594;SDS011;56800;52.142;5.364;2023-05-10T05:51:59;85.57;;;32.35;;
69594;SDS011;56800;52.142;5.364;2023-05-10T05:54:27;75.85;;;29.60;;
69594;SDS011;56800;52.142;5.364;2023-05-10T05:56:54;73.90;;;28.90;;
69594;SDS011;56800;52.142;5.364;2023-05-10T05:59:21;93.03;;;30.35;;
69594;SDS011;56800;52.142;5.364;2023-05-10T06:01:48;90.20;;;31.03;;
69594;SDS011;56800;52.142;5.364;2023-05-10T06:04:16;73.72;;;30.83;;
69594;SDS011;56800;52.142;5.364;2023-05-10T06:06:43;85.15;;;31.25;;
69594;SDS011;56800;52.142;5.364;2023-05-10T06:09:09;96.50;;;32.97;;
69594;SDS011;56800;52.142;5.364;2023-05-10T06:11:37;75.93;;;31.35;;
69594;SDS011;56800;52.142;5.364;2023-05-10T06:14:04;95.70;;;31.40;;
69594;SDS011;56800;52.142;5.364;2023-05-10T06:16:33;77.47;;;28.95;;
69594;SDS011;56800;52.142;5.364;2023-05-10T06:19:01;119.07;;;29.17;;
69594;SDS011;56800;52.142;5.364;2023-05-10T06:21:28;65.35;;;25.63;;
69594;SDS011;56800;52.142;5.364;2023-05-10T06:23:54;64.95;;;25.55;;
69594;SDS011;56800;52.142;5.364;2023-05-10T06:26:21;61.77;;;26.00;;
69594;SDS011;56800;52.142;5.364;2023-05-10T06:28:48;61.08;;;24.58;;
69594;SDS011;56800;52.142;5.364;2023-05-10T06:31:14;62.78;;;23.55;;
69594;SDS011;56800;52.142;5.364;2023-05-10T06:33:42;89.65;;;24.88;;
69594;SDS011;56800;52.142;5.364;2023-05-10T06:36:08;65.57;;;24.20;;
69594;SDS011;56800;52.142;5.364;2023-05-10T06:38:35;72.43;;;23.83;;
69594;SDS011;56800;52.142;5.364;2023-05-10T06:41:02;65.95;;;22.58;;
69594;SDS011;56800;52.142;5.364;2023-05-10T06:43:29;47.55;;;20.15;;
69594;SDS011;56800;52.142;5.364;2023-05-10T06:45:55;39.40;;;17.75;;
69594;SDS011;56800;52.142;5.364;2023-05-10T06:48:22;39.15;;;17.40;;
69594;SDS011;56800;52.142;5.364;2023-05-10T06:50:49;42.17;;;17.70;;
69594;SDS011;56800;52.142;5.364;2023-05-10T06:53:16;37.70;;;17.25;;
69594;SDS011;56800;52.142;5.364;2023-05-10T06:55:42;39.65;;;16.42;;
69594;SDS011;56800;52.142;5.364;2023-05-10T06:58:09;35.55;;;15.82;;
69594;SDS011;56800;52.142;5.364;2023-05-10T07:00:36;35.53;;;16.20;;
69594;SDS011;56800;52.142;5.364;2023-05-10T07:03:06;33.90;;;14.97;;
69594;SDS011;56800;52.142;5.364;2023-05-10T07:05:33;33.30;;;15.23;;
69594;SDS011;56800;52.142;5.364;2023-05-10T07:08:00;28.58;;;14.73;;
69594;SDS011;56800;52.142;5.364;2023-05-10T07:10:27;27.42;;;13.63;;
69594;SDS011;56800;52.142;5.364;2023-05-10T07:12:54;37.10;;;16.42;;
69594;SDS011;56800;52.142;5.364;2023-05-10T07:15:21;32.13;;;15.60;;
69594;SDS011;56800;52.142;5.364;2023-05-10T07:17:48;29.08;;;14.20;;
69594;SDS011;56800;52.142;5.364;2023-05-10T07:20:15;31.35;;;14.90;;
69594;SDS011;56800;52.142;5.364;2023-05-10T07:22:41;29.45;;;15.65;;
69594;SDS011;56800;52.142;5.364;2023-05-10T07:25:08;31.35;;;15.48;;
69594;SDS011;56800;52.142;5.364;2023-05-10T07:27:35;32.03;;;15.30;;
69594;SDS011;56800;52.142;5.364;2023-05-10T07:30:02;28.85;;;14.88;;
69594;SDS011;56800;52.142;5.364;2023-05-10T07:32:29;27.17;;;14.38;;
69594;SDS011;56800;52.142;5.364;2023-05-10T07:34:56;27.60;;;14.02;;
69594;SDS011;56800;52.142;5.364;2023-05-10T07:37:23;34.83;;;15.10;;
69594;SDS011;56800;52.142;5.364;2023-05-10T07:39:49;31.93;;;14.20;;
69594;SDS011;56800;52.142;5.364;2023-05-10T07:42:16;30.63;;;13.95;;
69594;SDS011;56800;52.142;5.364;2023-05-10T07:44:42;30.73;;;14.02;;
69594;SDS011;56800;52.142;5.364;2023-05-10T07:47:09;27.67;;;13.77;;
69594;SDS011;56800;52.142;5.364;2023-05-10T07:49:35;25.40;;;13.43;;
69594;SDS011;56800;52.142;5.364;2023-05-10T07:52:02;30.70;;;12.47;;
69594;SDS011;56800;52.142;5.364;2023-05-10T07:54:29;27.65;;;13.90;;
69594;SDS011;56800;52.142;5.364;2023-05-10T07:56:56;27.42;;;13.02;;
69594;SDS011;56800;52.142;5.364;2023-05-10T07:59:22;21.55;;;12.57;;
69594;SDS011;56800;52.142;5.364;2023-05-10T08:01:49;21.35;;;12.73;;
69594;SDS011;56800;52.142;5.364;2023-05-10T08:04:15;24.63;;;13.03;;
69594;SDS011;56800;52.142;5.364;2023-05-10T08:06:42;24.98;;;13.48;;
69594;SDS011;56800;52.142;5.364;2023-05-10T08:09:09;30.33;;;13.23;;
69594;SDS011;56800;52.142;5.364;2023-05-10T08:11:36;35.88;;;14.43;;
69594;SDS011;56800;52.142;5.364;2023-05-10T08:14:03;23.27;;;13.07;;
69594;SDS011;56800;52.142;5.364;2023-05-10T08:16:30;27.50;;;14.30;;
69594;SDS011;56800;52.142;5.364;2023-05-10T08:18:56;28.60;;;14.57;;
69594;SDS011;56800;52.142;5.364;2023-05-10T08:21:23;27.20;;;14.63;;
69594;SDS011;56800;52.142;5.364;2023-05-10T08:23:50;30.45;;;15.02;;
69594;SDS011;56800;52.142;5.364;2023-05-10T08:26:18;25.58;;;14.18;;
69594;SDS011;56800;52.142;5.364;2023-05-10T08:28:46;30.47;;;14.30;;
69594;SDS011;56800;52.142;5.364;2023-05-10T08:31:13;29.77;;;15.23;;
69594;SDS011;56800;52.142;5.364;2023-05-10T08:33:40;32.05;;;15.63;;
69594;SDS011;56800;52.142;5.364;2023-05-10T08:36:09;26.27;;;15.05;;
69594;SDS011;56800;52.142;5.364;2023-05-10T08:38:37;28.13;;;15.60;;
69594;SDS011;56800;52.142;5.364;2023-05-10T08:41:04;28.30;;;14.70;;
69594;SDS011;56800;52.142;5.364;2023-05-10T08:43:32;26.45;;;14.68;;
69594;SDS011;56800;52.142;5.364;2023-05-10T08:46:00;27.55;;;14.27;;
69594;SDS011;56800;52.142;5.364;2023-05-10T08:48:29;34.88;;;15.32;;
69594;SDS011;56800;52.142;5.364;2023-05-10T08:50:57;23.17;;;14.27;;
69594;SDS011;56800;52.142;5.364;2023-05-10T08:53:26;25.20;;;13.97;;
69594;SDS011;56800;52.142;5.364;2023-05-10T08:55:54;22.85;;;13.68;;
69594;SDS011;56800;52.142;5.364;2023-05-10T08:58:21;23.10;;;14.25;;
69594;SDS011;56800;52.142;5.364;2023-05-10T09:00:48;25.75;;;12.27;;
69594;SDS011;56800;52.142;5.364;2023-05-10T09:03:19;22.33;;;12.57;;
69594;SDS011;56800;52.142;5.364;2023-05-10T09:05:46;24.83;;;12.00;;
69594;SDS011;56800;52.142;5.364;2023-05-10T09:08:13;23.42;;;13.10;;
69594;SDS011;56800;52.142;5.364;2023-05-10T09:10:43;22.00;;;12.80;;
69594;SDS011;56800;52.142;5.364;2023-05-10T09:13:10;20.50;;;11.68;;
69594;SDS011;56800;52.142;5.364;2023-05-10T09:15:40;24.17;;;10.38;;
69594;SDS011;56800;52.142;5.364;2023-05-10T09:18:06;22.70;;;10.33;;
69594;SDS011;56800;52.142;5.364;2023-05-10T09:20:33;19.02;;;11.10;;
69594;SDS011;56800;52.142;5.364;2023-05-10T09:23:00;15.52;;;9.65;;
69594;SDS011;56800;52.142;5.364;2023-05-10T09:25:27;15.95;;;8.57;;
69594;SDS011;56800;52.142;5.364;2023-05-10T09:27:53;19.90;;;8.75;;
69594;SDS011;56800;52.142;5.364;2023-05-10T09:30:25;15.30;;;9.07;;
69594;SDS011;56800;52.142;5.364;2023-05-10T09:32:53;16.88;;;8.20;;
69594;SDS011;56800;52.142;5.364;2023-05-10T09:35:21;12.90;;;7.63;;
69594;SDS011;56800;52.142;5.364;2023-05-10T09:37:54;16.20;;;7.82;;
69594;SDS011;56800;52.142;5.364;2023-05-10T09:40:26;16.25;;;8.02;;
69594;SDS011;56800;52.142;5.364;2023-05-10T09:42:57;16.33;;;7.87;;
69594;SDS011;56800;52.142;5.364;2023-05-10T09:45:29;15.88;;;6.97;;
69594;SDS011;56800;52.142;5.364;2023-05-10T09:47:57;16.48;;;7.65;;
69594;SDS011;56800;52.142;5.364;2023-05-10T09:50:25;12.77;;;7.00;;
69594;SDS011;56800;52.142;5.364;2023-05-10T09:52:54;11.15;;;6.50;;
69594;SDS011;56800;52.142;5.364;2023-05-10T09:55:37;11.00;;;6.83;;
69594;SDS011;56800;52.142;5.364;2023-05-10T09:58:05;13.95;;;6.63;;
69594;SDS011;56800;52.142;5.364;2023-05-10T10:00:37;12.75;;;6.85;;
69594;SDS011;56800;52.142;5.364;2023-05-10T10:03:18;11.18;;;6.50;;
69594;SDS011;56800;52.142;5.364;2023-05-10T10:05:46;12.68;;;7.07;;
69594;SDS011;56800;52.142;5.364;2023-05-10T10:08:14;13.60;;;7.53;;
69594;SDS011;56800;52.142;5.364;2023-05-10T10:10:42;12.23;;;7.25;;
69594;SDS011;56800;52.142;5.364;2023-05-10T10:13:11;13.63;;;8.15;;
69594;SDS011;56800;52.142;5.364;2023-05-10T10:15:38;12.90;;;8.13;;
69594;SDS011;56800;52.142;5.364;2023-05-10T10:18:05;12.93;;;8.45;;
69594;SDS011;56800;52.142;5.364;2023-05-10T10:20:34;16.50;;;8.60;;
69594;SDS011;56800;52.142;5.364;2023-05-10T10:23:03;16.08;;;8.20;;
69594;SDS011;56800;52.142;5.364;2023-05-10T10:25:30;11.30;;;7.95;;
69594;SDS011;56800;52.142;5.364;2023-05-10T10:28:00;14.57;;;8.75;;
69594;SDS011;56800;52.142;5.364;2023-05-10T10:30:53;13.27;;;8.15;;
69594;SDS011;56800;52.142;5.364;2023-05-10T10:36:00;17.48;;;8.90;;
69594;SDS011;56800;52.142;5.364;2023-05-10T10:41:11;14.98;;;7.93;;
69594;SDS011;56800;52.142;5.364;2023-05-10T10:47:09;13.67;;;7.53;;
69594;SDS011;56800;52.142;5.364;2023-05-10T10:49:51;10.52;;;7.43;;
69594;SDS011;56800;52.142;5.364;2023-05-10T10:52:30;12.35;;;7.07;;
69594;SDS011;56800;52.142;5.364;2023-05-10T11:00:30;15.13;;;8.17;;
69594;SDS011;56800;52.142;5.364;2023-05-10T11:05:46;15.93;;;7.72;;
69594;SDS011;56800;52.142;5.364;2023-05-10T11:08:16;12.18;;;7.03;;
69594;SDS011;56800;52.142;5.364;2023-05-10T11:11:06;14.00;;;7.80;;
69594;SDS011;56800;52.142;5.364;2023-05-10T11:13:40;15.60;;;8.20;;
69594;SDS011;56800;52.142;5.364;2023-05-10T11:16:14;11.60;;;7.35;;
69594;SDS011;56800;52.142;5.364;2023-05-10T11:18:57;12.77;;;7.18;;
69594;SDS011;56800;52.142;5.364;2023-05-10T11:21:25;14.60;;;6.68;;
69594;SDS011;56800;52.142;5.364;2023-05-10T11:23:53;12.50;;;6.60;;
69594;SDS011;56800;52.142;5.364;2023-05-10T11:26:24;18.47;;;6.07;;
69594;SDS011;56800;52.142;5.364;2023-05-10T11:28:53;19.08;;;6.75;;
69594;SDS011;56800;52.142;5.364;2023-05-10T11:31:24;12.65;;;5.80;;
69594;SDS011;56800;52.142;5.364;2023-05-10T11:33:56;18.00;;;6.53;;
69594;SDS011;56800;52.142;5.364;2023-05-10T11:36:25;14.50;;;5.50;;
69594;SDS011;56800;52.142;5.364;2023-05-10T11:38:53;9.37;;;4.80;;
69594;SDS011;56800;52.142;5.364;2023-05-10T11:41:22;20.52;;;5.45;;
69594;SDS011;56800;52.142;5.364;2023-05-10T11:43:51;10.80;;;5.05;;
69594;SDS011;56800;52.142;5.364;2023-05-10T11:46:19;14.48;;;5.20;;
69594;SDS011;56800;52.142;5.364;2023-05-10T11:48:51;11.30;;;4.85;;
69594;SDS011;56800;52.142;5.364;2023-05-10T11:51:20;14.30;;;4.97;;
69594;SDS011;56800;52.142;5.364;2023-05-10T11:53:49;16.20;;;5.05;;
69594;SDS011;56800;52.142;5.364;2023-05-10T11:56:16;11.73;;;4.80;;
69594;SDS011;56800;52.142;5.364;2023-05-10T11:58:43;10.10;;;4.82;;
69594;SDS011;56800;52.142;5.364;2023-05-10T12:01:11;12.65;;;4.72;;
69594;SDS011;56800;52.142;5.364;2023-05-10T12:03:38;8.03;;;4.23;;
69594;SDS011;56800;52.142;5.364;2023-05-10T12:06:06;6.82;;;4.32;;
69594;SDS011;56800;52.142;5.364;2023-05-10T12:08:33;9.93;;;4.93;;
69594;SDS011;56800;52.142;5.364;2023-05-10T12:11:07;18.35;;;5.40;;
69594;SDS011;56800;52.142;5.364;2023-05-10T12:13:40;12.27;;;4.88;;
69594;SDS011;56800;52.142;5.364;2023-05-10T12:16:17;8.17;;;4.70;;
69594;SDS011;56800;52.142;5.364;2023-05-10T12:18:44;8.35;;;4.50;;
69594;SDS011;56800;52.142;5.364;2023-05-10T12:21:14;10.80;;;5.65;;
69594;SDS011;56800;52.142;5.364;2023-05-10T12:23:41;11.55;;;5.13;;
69594;SDS011;56800;52.142;5.364;2023-05-10T12:26:11;14.45;;;4.72;;
69594;SDS011;56800;52.142;5.364;2023-05-10T12:28:38;21.47;;;4.60;;
69594;SDS011;56800;52.142;5.364;2023-05-10T12:31:08;14.98;;;4.03;;
69594;SDS011;56800;52.142;5.364;2023-05-10T12:33:35;12.15;;;4.03;;
69594;SDS011;56800;52.142;5.364;2023-05-10T12:36:08;9.25;;;3.63;;
69594;SDS011;56800;52.142;5.364;2023-05-10T12:38:39;9.13;;;3.58;;
69594;SDS011;56800;52.142;5.364;2023-05-10T12:41:14;10.23;;;3.80;;
69594;SDS011;56800;52.142;5.364;2023-05-10T12:43:42;9.80;;;3.30;;
69594;SDS011;56800;52.142;5.364;2023-05-10T12:46:10;20.38;;;4.43;;
69594;SDS011;56800;52.142;5.364;2023-05-10T12:48:38;6.65;;;3.33;;
69594;SDS011;56800;52.142;5.364;2023-05-10T12:51:06;16.42;;;3.50;;
69594;SDS011;56800;52.142;5.364;2023-05-10T12:53:38;11.07;;;3.70;;
69594;SDS011;56800;52.142;5.364;2023-05-10T12:56:09;6.68;;;4.13;;
69594;SDS011;56800;52.142;5.364;2023-05-10T12:58:36;11.60;;;3.50;;
69594;SDS011;56800;52.142;5.364;2023-05-10T13:01:02;8.07;;;3.40;;
69594;SDS011;56800;52.142;5.364;2023-05-10T13:03:30;7.32;;;2.90;;
69594;SDS011;56800;52.142;5.364;2023-05-10T13:05:57;5.93;;;3.23;;
69594;SDS011;56800;52.142;5.364;2023-05-10T13:08:24;6.90;;;3.28;;
69594;SDS011;56800;52.142;5.364;2023-05-10T13:10:51;7.95;;;3.20;;
69594;SDS011;56800;52.142;5.364;2023-05-10T13:13:17;8.88;;;3.40;;
69594;SDS011;56800;52.142;5.364;2023-05-10T13:15:44;8.48;;;4.72;;
69594;SDS011;56800;52.142;5.364;2023-05-10T13:18:11;24.67;;;7.60;;
69594;SDS011;56800;52.142;5.364;2023-05-10T13:20:37;15.10;;;7.65;;
69594;SDS011;56800;52.142;5.364;2023-05-10T13:23:04;15.20;;;7.47;;
69594;SDS011;56800;52.142;5.364;2023-05-10T13:25:31;15.20;;;8.20;;
69594;SDS011;56800;52.142;5.364;2023-05-10T13:27:57;14.13;;;7.80;;
69594;SDS011;56800;52.142;5.364;2023-05-10T13:30:24;12.57;;;7.37;;
69594;SDS011;56800;52.142;5.364;2023-05-10T13:32:51;16.92;;;7.40;;
69594;SDS011;56800;52.142;5.364;2023-05-10T13:35:17;12.32;;;6.75;;
69594;SDS011;56800;52.142;5.364;2023-05-10T13:37:44;11.85;;;7.35;;
69594;SDS011;56800;52.142;5.364;2023-05-10T13:40:11;11.80;;;7.30;;
69594;SDS011;56800;52.142;5.364;2023-05-10T13:42:37;15.70;;;7.57;;
69594;SDS011;56800;52.142;5.364;2023-05-10T13:45:04;13.90;;;7.88;;
69594;SDS011;56800;52.142;5.364;2023-05-10T13:47:31;15.70;;;8.93;;
69594;SDS011;56800;52.142;5.364;2023-05-10T13:49:58;17.98;;;9.18;;
69594;SDS011;56800;52.142;5.364;2023-05-10T13:52:25;15.45;;;9.00;;
69594;SDS011;56800;52.142;5.364;2023-05-10T13:54:52;16.73;;;9.30;;
69594;SDS011;56800;52.142;5.364;2023-05-10T13:57:21;19.23;;;8.82;;
69594;SDS011;56800;52.142;5.364;2023-05-10T13:59:49;15.43;;;8.57;;
69594;SDS011;56800;52.142;5.364;2023-05-10T14:02:16;17.58;;;9.70;;
69594;SDS011;56800;52.142;5.364;2023-05-10T14:04:43;15.60;;;9.30;;
69594;SDS011;56800;52.142;5.364;2023-05-10T14:07:09;15.47;;;9.20;;
69594;SDS011;56800;52.142;5.364;2023-05-10T14:09:36;16.85;;;8.75;;
69594;SDS011;56800;52.142;5.364;2023-05-10T14:12:02;16.83;;;8.98;;
69594;SDS011;56800;52.142;5.364;2023-05-10T14:14:29;14.93;;;9.45;;
69594;SDS011;56800;52.142;5.364;2023-05-10T14:16:56;19.77;;;9.02;;
69594;SDS011;56800;52.142;5.364;2023-05-10T14:19:23;20.17;;;9.57;;
69594;SDS011;56800;52.142;5.364;2023-05-10T14:21:49;19.10;;;9.15;;
69594;SDS011;56800;52.142;5.364;2023-05-10T14:24:17;16.60;;;9.20;;
69594;SDS011;56800;52.142;5.364;2023-05-10T14:26:44;15.85;;;9.00;;
69594;SDS011;56800;52.142;5.364;2023-05-10T14:29:11;15.50;;;9.10;;
69594;SDS011;56800;52.142;5.364;2023-05-10T14:31:38;19.23;;;9.20;;
69594;SDS011;56800;52.142;5.364;2023-05-10T14:34:04;17.98;;;8.55;;
69594;SDS011;56800;52.142;5.364;2023-05-10T14:36:31;18.48;;;9.32;;
69594;SDS011;56800;52.142;5.364;2023-05-10T14:38:58;17.80;;;8.55;;
69594;SDS011;56800;52.142;5.364;2023-05-10T14:41:25;17.42;;;9.50;;
69594;SDS011;56800;52.142;5.364;2023-05-10T14:43:52;14.83;;;8.83;;
69594;SDS011;56800;52.142;5.364;2023-05-10T14:46:19;16.33;;;8.73;;
69594;SDS011;56800;52.142;5.364;2023-05-10T14:48:45;19.83;;;8.20;;
69594;SDS011;56800;52.142;5.364;2023-05-10T14:51:12;14.95;;;8.80;;
69594;SDS011;56800;52.142;5.364;2023-05-10T14:53:39;13.95;;;8.57;;
69594;SDS011;56800;52.142;5.364;2023-05-10T14:56:06;16.77;;;9.53;;
69594;SDS011;56800;52.142;5.364;2023-05-10T14:58:33;16.75;;;9.23;;
69594;SDS011;56800;52.142;5.364;2023-05-10T15:00:59;18.23;;;8.60;;
69594;SDS011;56800;52.142;5.364;2023-05-10T15:03:27;16.30;;;8.80;;
69594;SDS011;56800;52.142;5.364;2023-05-10T15:05:54;16.05;;;9.82;;